createdAt,value
2023-02-12T00:31:11.126Z,75.87
2023-02-12T00:34:59.881Z,76.22
2023-02-12T00:39:08.345Z,75.91
2023-02-12T00:43:10.053Z,75.83
2023-02-12T00:47:08.969Z,75.76
2023-02-12T00:51:10.333Z,76.01
2023-02-12T00:55:11.829Z,75.80
2023-02-12T00:59:13.262Z,75.82
2023-02-12T01:03:13.708Z,75.91
2023-02-12T01:06:50.656Z,75.96
2023-02-12T03:22:08.888Z,76.68
2023-02-12T03:25:24.344Z,76.87
2023-02-12T03:29:12.938Z,76.99
2023-02-12T03:33:20.448Z,77.08
2023-02-12T03:37:29.265Z,77.21
2023-02-12T03:41:38.250Z,77.19
2023-02-12T03:45:32.400Z,77.36
2023-02-12T03:56:52.993Z,77.31
2023-02-12T04:00:10.357Z,77.30
2023-02-12T04:07:09.815Z,77.42
2023-02-12T04:10:29.191Z,77.60
2023-02-12T04:13:59.220Z,77.44
2023-02-12T04:17:38.999Z,77.63
2023-02-12T04:21:39.801Z,77.74
2023-02-12T04:25:54.932Z,77.63
2023-02-12T04:29:50.271Z,77.46
2023-02-12T04:33:48.967Z,77.69
2023-02-12T04:38:00.561Z,77.50
2023-02-12T04:41:44.147Z,77.47
2023-02-12T04:45:04.075Z,77.30
2023-02-12T05:09:18.502Z,77.48
2023-02-12T05:12:18.461Z,77.47
2023-02-12T05:16:08.262Z,77.63
2023-02-12T05:20:06.729Z,77.68
2023-02-12T05:23:38.188Z,77.79
2023-02-12T05:27:46.876Z,77.54
2023-02-12T05:31:03.906Z,77.50
2023-02-12T05:35:12.791Z,77.54
2023-02-12T05:38:55.449Z,77.59
2023-02-12T05:42:40.757Z,77.24
2023-02-12T05:45:53.990Z,77.17
2023-02-12T05:49:54.021Z,77.39
2023-02-12T05:54:02.824Z,77.29
2023-02-12T05:58:11.395Z,77.49
2023-02-12T06:02:20.153Z,77.49
2023-02-12T06:05:56.817Z,77.38
2023-02-12T06:09:28.368Z,77.54
2023-02-12T06:13:25.888Z,77.49
2023-02-12T06:17:06.202Z,77.41
2023-02-12T06:19:55.836Z,77.22
2023-02-12T06:23:26.332Z,77.27
2023-02-12T06:27:18.361Z,77.23
2023-02-12T06:30:34.290Z,77.24
2023-02-12T06:34:28.187Z,77.17
2023-02-12T06:38:09.176Z,77.22
2023-02-12T06:42:17.917Z,77.61
2023-02-12T06:45:49.530Z,77.02
2023-02-12T06:49:40.934Z,77.14
2023-02-12T06:53:10.532Z,77.64
2023-02-12T06:56:54.480Z,77.36
2023-02-12T07:00:33.799Z,77.40
2023-02-12T07:04:24.793Z,77.43
2023-02-12T07:07:45.335Z,77.57
2023-02-12T07:11:53.978Z,77.52
2023-02-12T07:15:01.819Z,77.60
2023-02-12T07:17:57.352Z,77.71
2023-02-12T07:20:44.630Z,77.69
2023-02-12T07:24:31.658Z,77.29
2023-02-12T07:28:31.227Z,77.90
2023-02-12T07:32:19.569Z,77.50
2023-02-12T07:35:42.690Z,77.46
2023-02-12T07:39:07.012Z,77.70
2023-02-12T07:43:16.348Z,77.47
2023-02-12T07:46:47.829Z,77.57
2023-02-12T07:50:00.572Z,77.84
2023-02-12T07:54:09.544Z,78.01
2023-02-12T07:57:10.337Z,77.74
2023-02-12T08:55:12.704Z,77.93
2023-02-12T08:59:09.165Z,78.02
2023-02-12T09:02:46.470Z,77.94
2023-02-12T09:06:35.278Z,77.85
2023-02-12T09:10:21.571Z,77.95
2023-02-12T09:14:10.668Z,77.95
2023-02-12T09:18:00.703Z,77.91
2023-02-12T09:21:34.925Z,78.18
2023-02-12T09:24:50.473Z,78.07
2023-02-12T09:28:28.479Z,78.14
2023-02-12T09:32:11.366Z,78.03
2023-02-12T09:36:03.218Z,77.90
2023-02-12T09:40:00.125Z,77.66
2023-02-12T09:43:54.280Z,77.58
2023-02-12T09:50:46.349Z,77.62
2023-02-12T09:58:38.615Z,77.59
2023-02-12T10:02:42.377Z,77.60
2023-02-12T10:06:59.681Z,77.50
2023-02-12T10:10:52.944Z,77.55
2023-02-12T10:14:14.610Z,77.62
2023-02-12T10:18:23.578Z,77.82
2023-02-12T10:22:10.044Z,77.68
2023-02-12T10:25:21.557Z,77.59
2023-02-12T10:28:39.470Z,77.52
2023-02-12T10:32:10.220Z,77.50
2023-02-12T10:35:59.300Z,77.39
2023-02-12T10:39:56.774Z,77.48
2023-02-12T10:43:10.626Z,77.45
2023-02-12T10:46:57.674Z,77.39
2023-02-12T10:50:38.189Z,77.26
2023-02-12T10:53:58.107Z,77.18
2023-02-12T10:57:45.710Z,77.09
2023-02-12T11:01:15.920Z,77.16
2023-02-12T11:05:24.648Z,77.16
2023-02-12T11:13:23.682Z,77.04
2023-02-12T11:16:48.231Z,77.02
2023-02-12T11:19:32.693Z,76.88
2023-02-12T11:26:30.366Z,76.91
2023-02-12T11:30:02.348Z,76.88
2023-02-12T11:41:03.255Z,76.92
2023-02-12T11:44:49.194Z,77.12
2023-02-12T11:48:58.569Z,76.92
2023-02-12T11:52:16.323Z,76.98
2023-02-12T11:55:14.275Z,77.02
2023-02-12T11:58:35.347Z,77.08
2023-02-12T12:01:55.313Z,77.06
2023-02-12T12:05:06.470Z,77.07
2023-02-12T12:09:15.512Z,77.06
2023-02-12T12:13:04.141Z,77.11
2023-02-12T12:16:32.286Z,77.16
2023-02-12T12:20:10.623Z,77.32
2023-02-12T12:23:28.561Z,77.21
2023-02-12T12:27:37.491Z,77.13
2023-02-12T12:31:46.339Z,76.95
2023-02-12T12:35:04.721Z,76.87
2023-02-12T12:38:39.665Z,76.80
2023-02-12T12:42:01.113Z,76.64
2023-02-12T12:46:01.950Z,76.74
2023-02-12T12:49:52.511Z,76.79
2023-02-12T12:53:53.257Z,76.61
2023-02-12T13:02:40.291Z,76.62
2023-02-12T13:06:30.982Z,76.29
2023-02-12T13:10:12.385Z,76.61
2023-02-12T13:13:57.834Z,76.62
2023-02-12T13:52:47.953Z,76.53
2023-02-12T13:56:44.365Z,76.22
2023-02-12T14:01:11.456Z,76.22
2023-02-12T14:05:34.795Z,76.12
2023-02-12T14:24:30.724Z,75.83
2023-02-12T14:28:07.448Z,75.78
2023-02-12T14:32:19.080Z,75.69
2023-02-12T14:36:18.849Z,75.64
2023-02-12T14:40:17.196Z,75.48
2023-02-12T14:44:21.748Z,75.45
2023-02-12T14:48:21.736Z,75.44
2023-02-12T14:52:29.790Z,75.43
2023-02-12T14:56:02.267Z,75.36
2023-02-12T14:59:49.519Z,75.37
2023-02-12T15:03:43.764Z,75.41
2023-02-12T15:07:22.855Z,75.31
2023-02-12T15:11:36.062Z,75.50
2023-02-12T15:15:37.723Z,75.41
2023-02-12T15:19:46.537Z,75.30
2023-02-12T15:24:10.027Z,75.16
2023-02-12T15:28:05.716Z,75.15
2023-02-12T15:31:52.370Z,75.13
2023-02-12T15:35:29.509Z,75.22
2023-02-12T15:39:35.396Z,75.25
2023-02-12T15:43:35.210Z,75.23
2023-02-12T15:48:02.092Z,75.30
2023-02-12T15:59:22.471Z,75.42
2023-02-12T16:43:07.176Z,75.33
2023-02-12T16:47:18.931Z,75.33
2023-02-12T16:51:36.818Z,75.26
2023-02-12T16:54:21.213Z,75.22
2023-02-12T16:58:39.172Z,75.17
2023-02-12T17:20:06.517Z,75.27
2023-02-12T17:24:16.361Z,75.29
2023-02-12T17:28:26.957Z,75.29
2023-02-12T17:32:37.075Z,75.24
2023-02-12T17:52:51.818Z,74.90
2023-02-12T17:57:02.389Z,74.87
2023-02-12T18:01:12.306Z,74.82
2023-02-12T18:05:23.374Z,74.66
2023-02-12T18:09:22.864Z,74.56
2023-02-12T18:17:14.409Z,74.51
2023-02-12T18:21:19.585Z,74.32
2023-02-12T18:25:23.680Z,74.18
2023-02-12T18:29:33.089Z,74.02
2023-02-12T18:33:35.537Z,73.55
2023-02-12T18:37:45.870Z,73.59
2023-02-12T18:46:14.909Z,73.71
2023-02-12T18:49:54.205Z,73.35
2023-02-12T19:15:11.314Z,72.67
2023-02-12T19:19:21.226Z,72.61
2023-02-12T19:23:33.127Z,72.44
2023-02-12T19:27:44.393Z,72.26
2023-02-12T19:31:53.695Z,72.08
2023-02-12T19:36:03.208Z,71.94
2023-02-12T19:40:10.805Z,72.00
2023-02-12T19:44:00.310Z,71.92
2023-02-12T20:09:19.881Z,71.63
2023-02-12T20:13:47.897Z,71.56
2023-02-12T20:18:01.453Z,71.54
2023-02-12T20:22:18.651Z,71.60
2023-02-12T20:26:23.091Z,71.61
2023-02-12T20:34:08.431Z,71.37
2023-02-12T20:38:17.107Z,71.43
2023-02-12T20:42:14.511Z,71.42
2023-02-12T20:46:26.974Z,71.29
2023-02-12T20:50:36.553Z,71.31
2023-02-12T20:54:47.706Z,71.34
2023-02-12T20:58:59.149Z,71.34
2023-02-12T22:10:48.165Z,71.78
2023-02-12T22:14:33.423Z,71.84
2023-02-12T22:18:33.794Z,71.88
2023-02-12T22:22:35.520Z,71.86
2023-02-12T22:26:44.313Z,72.03
2023-02-12T22:42:15.780Z,72.28
2023-02-12T22:46:24.569Z,72.31
2023-02-12T22:50:33.101Z,72.45
2023-02-12T22:54:41.605Z,72.52
2023-02-12T22:58:42.981Z,72.58
2023-02-12T23:02:52.859Z,72.60
2023-02-12T23:07:01.527Z,72.78
2023-02-12T23:35:15.804Z,73.00
2023-02-12T23:39:24.634Z,73.22
2023-02-12T23:43:33.520Z,73.28
2023-02-12T23:47:42.312Z,73.30
2023-02-12T23:51:50.728Z,73.53
2023-02-12T23:55:50.536Z,73.56
2023-02-12T23:59:57.658Z,73.63
